Map

Track Data

SID SEASON NUMBER BASIN SUBBASIN NAME ISO_TIME NATURE LAT LON WMO_WIND WMO_PRES WMO_AGENCY TRACK_TYPE DIST2LAND LANDFALL IFLAG USA_AGENCY USA_ATCF_ID USA_LAT USA_LON USA_RECORD USA_STATUS USA_WIND USA_PRES USA_SSHS USA_R34_NE USA_R34_SE USA_R34_SW USA_R34_NW USA_R50_NE USA_R50_SE USA_R50_SW USA_R50_NW USA_R64_NE USA_R64_SE USA_R64_SW USA_R64_NW USA_POCI USA_ROCI USA_RMW USA_EYE TOKYO_LAT TOKYO_LON TOKYO_GRADE TOKYO_WIND TOKYO_PRES TOKYO_R50_DIR TOKYO_R50_LONG TOKYO_R50_SHORT TOKYO_R30_DIR TOKYO_R30_LONG TOKYO_R30_SHORT TOKYO_LAND CMA_LAT CMA_LON CMA_CAT CMA_WIND CMA_PRES HKO_LAT HKO_LON HKO_CAT HKO_WIND HKO_PRES NEWDELHI_LAT NEWDELHI_LON NEWDELHI_GRADE NEWDELHI_WIND NEWDELHI_PRES NEWDELHI_CI NEWDELHI_DP NEWDELHI_POCI REUNION_LAT REUNION_LON REUNION_TYPE REUNION_WIND REUNION_PRES REUNION_TNUM REUNION_CI REUNION_RMW REUNION_R34_NE REUNION_R34_SE REUNION_R34_SW REUNION_R34_NW REUNION_R50_NE REUNION_R50_SE REUNION_R50_SW REUNION_R50_NW REUNION_R64_NE REUNION_R64_SE REUNION_R64_SW REUNION_R64_NW BOM_LAT BOM_LON BOM_TYPE BOM_WIND BOM_PRES BOM_TNUM BOM_CI BOM_RMW BOM_R34_NE BOM_R34_SE BOM_R34_SW BOM_R34_NW BOM_R50_NE BOM_R50_SE BOM_R50_SW BOM_R50_NW BOM_R64_NE BOM_R64_SE BOM_R64_SW BOM_R64_NW BOM_ROCI BOM_POCI BOM_EYE BOM_POS_METHOD BOM_PRES_METHOD NADI_LAT NADI_LON NADI_CAT NADI_WIND NADI_PRES WELLINGTON_LAT WELLINGTON_LON WELLINGTON_WIND WELLINGTON_PRES DS824_LAT DS824_LON DS824_STAGE DS824_WIND DS824_PRES TD9636_LAT TD9636_LON TD9636_STAGE TD9636_WIND TD9636_PRES TD9635_LAT TD9635_LON TD9635_WIND TD9635_PRES TD9635_ROCI NEUMANN_LAT NEUMANN_LON NEUMANN_CLASS NEUMANN_WIND NEUMANN_PRES MLC_LAT MLC_LON MLC_CLASS MLC_WIND MLC_PRES USA_GUST BOM_GUST BOM_GUST_PER REUNION_GUST REUNION_GUST_PER USA_SEAHGT USA_SEARAD_NE USA_SEARAD_SE USA_SEARAD_SW USA_SEARAD_NW STORM_SPEED STORM_DIR
1868275N27265 1868 13 NA GM NOT_NAMED 1868-09-30 12:00:00 TS 27.0000 -95.0000 main 203 203 _____________O -1 27.0000 -95.0000 TS 35 1 19
1868275N27265 1868 13 NA GM NOT_NAMED 1868-09-30 15:00:00 TS 27.0375 -95.0000 main 203 194 _____________P -1 27.0375 -95.0000 TS 35 1 0
1868275N27265 1868 13 NA GM NOT_NAMED 1868-09-30 18:00:00 TS 27.1000 -95.0000 main 194 184 _____________O -1 27.1000 -95.0000 TS 35 2 5
1868275N27265 1868 13 NA GM NOT_NAMED 1868-09-30 21:00:00 TS 27.2000 -95.0000 main 184 184 _____________P -1 27.2000 -95.0000 TS 37 5 166
1868275N27265 1868 13 NA GM NOT_NAMED 1868-10-01 00:00:00 TS 26.6000 -94.8667 40 hurdat_atl main 229 229 O____________O hurdat_atl AL021868 25.2000 -94.6000 TS 40 0 27.3000 -95.0000 TS 40 8 165
1868275N27265 1868 13 NA GM NOT_NAMED 1868-10-01 03:00:00 TS 26.4075 -94.7550 main 233 233 P____________P AL021868 25.4575 -94.5101 TS 40 0 27.3575 -95.0000 TS 40 3 137
1868275N27265 1868 13 NA GM NOT_NAMED 1868-10-01 06:00:00 TS 26.3800 -94.6400 40 hurdat_atl main 253 253 O____________O hurdat_atl AL021868 25.7000 -94.4000 TS 40 0 27.4000 -95.0000 TS 40 2 86
1868275N27265 1868 13 NA GM NOT_NAMED 1868-10-01 09:00:00 TS 26.4241 -94.5175 main 262 262 P____________P AL021868 25.9150 -94.2575 TS 40 0 27.4424 -95.0374 TS 40 3 49
1868275N27265 1868 13 NA GM NOT_NAMED 1868-10-01 12:00:00 TS 26.5667 -94.4000 40 hurdat_atl main 273 268 O____________O hurdat_atl AL021868 26.1000 -94.1000 TS 40 0 27.5000 -95.0000 TS 40 4 42
1868275N27265 1868 13 NA GM NOT_NAMED 1868-10-01 15:00:00 TS 26.6999 -94.2441 main 272 262 P____________P AL021868 26.2575 -93.9499 TS 40 0 27.5847 -94.8323 TS 40 4 51
1868275N27265 1868 13 NA GM NOT_NAMED 1868-10-01 18:00:00 TS 26.8333 -94.0333 40 hurdat_atl main 271 262 O____________O hurdat_atl AL021868 26.4000 -93.8000 TS 40 0 27.7000 -94.5000 TS 40 5 57
1868275N27265 1868 13 NA GM NOT_NAMED 1868-10-01 21:00:00 TS 26.9860 -93.7526 main 262 262 P____________P AL021868 26.5575 -93.6425 TS 45 0 27.8430 -93.9727 TS 45 6 59
1868275N27265 1868 13 NA GM NOT_NAMED 1868-10-02 00:00:00 TS 27.1333 -93.4667 50 hurdat_atl main 269 264 O____________O hurdat_atl AL021868 26.7000 -93.5000 TS 50 0 28.0000 -93.4000 TS 50 5 58
1868275N27265 1868 13 NA GM NOT_NAMED 1868-10-02 03:00:00 TS 27.2573 -93.2616 main 264 247 P____________P AL021868 26.8075 -93.3999 TS 50 0 28.1571 -92.9849 TS 50 4 57
1868275N27265 1868 13 NA GM NOT_NAMED 1868-10-02 06:00:00 TS 27.3667 -93.0667 50 hurdat_atl main 247 228 O____________O hurdat_atl AL021868 26.9000 -93.3000 TS 50 0 28.3000 -92.6000 TS 50 4 63
1868275N27265 1868 13 NA GM NOT_NAMED 1868-10-02 09:00:00 TS 27.4566 -92.8265 main 228 214 P____________P AL021868 26.9850 -93.1649 TS 55 0 28.4000 -92.1498 TS 55 5 66
1868275N27265 1868 13 NA GM NOT_NAMED 1868-10-02 12:00:00 TS 27.5667 -92.5667 60 hurdat_atl main 214 200 O____________O hurdat_atl AL021868 27.1000 -93.0000 TS 60 0 28.5000 -91.7000 TS 60 5 58
1868275N27265 1868 13 NA GM NOT_NAMED 1868-10-02 15:00:00 TS 27.7449 -92.3075 main 200 169 P____________P AL021868 27.2925 -92.8150 TS 60 0 28.6498 -91.2925 TS 60 6 52
1868275N27265 1868 13 NA GM NOT_NAMED 1868-10-02 18:00:00 TS 27.9333 -92.0333 60 hurdat_atl main 169 140 O____________O hurdat_atl AL021868 27.5000 -92.6000 TS 60 0 28.8000 -90.9000 TS 60 6 57
1868275N27265 1868 13 NA GM NOT_NAMED 1868-10-02 21:00:00 TS 28.0766 -91.7382 main 136 116 P____________P AL021868 27.6650 -92.3575 TS 60 0 28.8999 -90.4998 TS 60 6 63
1868275N27265 1868 13 NA GM NOT_NAMED 1868-10-03 00:00:00 TS 28.2000 -91.4333 60 hurdat_atl main 111 93 O____________O hurdat_atl AL021868 27.8000 -92.1000 TS 60 0 29.0000 -90.1000 TS 60 6 65
1868275N27265 1868 13 NA GM NOT_NAMED 1868-10-03 03:00:00 TS 28.3191 -91.1382 main 91 78 P____________P AL021868 27.9074 -91.8574 TS 60 0 29.1424 -89.7000 TS 60 6 66
1868275N27265 1868 13 NA GM NOT_NAMED 1868-10-03 06:00:00 TS 28.4333 -90.8333 60 hurdat_atl main 78 66 O____________O hurdat_atl AL021868 28.0000 -91.6000 TS 60 0 29.3000 -89.3000 TS 60 6 69
1868275N27265 1868 13 NA GM NOT_NAMED 1868-10-03 09:00:00 TS 28.5374 -90.5073 main 67 44 P____________P AL021868 28.0850 -91.3073 TS 60 0 29.4423 -88.9072 TS 60 6 68
1868275N27265 1868 13 NA GM NOT_NAMED 1868-10-03 12:00:00 TS 28.6667 -90.1667 60 hurdat_atl main 44 34 O____________O hurdat_atl AL021868 28.2000 -91.0000 TS 60 0 29.6000 -88.5000 TS 60 7 61
1868275N27265 1868 13 NA GM NOT_NAMED 1868-10-03 15:00:00 TS 28.8589 -89.8416 main 36 9 P____________P AL021868 28.3922 -90.7299 TS 60 0 29.7923 -88.0649 TS 60 7 57
1868275N27265 1868 13 NA GM NOT_NAMED 1868-10-03 18:00:00 TS 29.0667 -89.4667 60 hurdat_atl main 9 0 O____________O hurdat_atl AL021868 28.6000 -90.4000 TS 60 0 30.0000 -87.6000 TS 60 8 63
1868275N27265 1868 13 NA GM NOT_NAMED 1868-10-03 21:00:00 TS 29.2383 -88.9940 main 9 9 P____________P AL021868 28.7575 -89.9374 TS 60 0 30.1999 -87.1073 TS 55 9 69
1868275N27265 1868 13 NA GM NOT_NAMED 1868-10-04 00:00:00 TS 29.4000 -88.4667 60 hurdat_atl main 58 58 O____________O hurdat_atl AL021868 28.9000 -89.4000 TS 60 0 30.4000 -86.6000 TS 50 10 70
1868275N27265 1868 13 NA GM NOT_NAMED 1868-10-04 03:00:00 TS 29.5664 -87.9481 main 67 62 P____________P AL021868 29.0497 -88.8723 TS 60 0 30.5998 -86.0998 TS 50 10 70
1868275N27265 1868 13 NA GM NOT_NAMED 1868-10-04 06:00:00 TS 29.7333 -87.4000 60 hurdat_atl main 66 48 O____________O hurdat_atl AL021868 29.2000 -88.3000 TS 60 0 30.8000 -85.6000 TS 50 10 71
1868275N27265 1868 13 NA GM NOT_NAMED 1868-10-04 09:00:00 TS 29.8752 -86.9027 main 53 29 P____________P AL021868 29.3211 -87.7634 TS 60 0 30.9835 -85.1813 TS 45 11 72
1868275N27265 1868 13 NA GM NOT_NAMED 1868-10-04 12:00:00 TS 30.0667 -86.2000 60 hurdat_atl main 24 0 O____________O hurdat_atl AL021868 29.5000 -87.0000 TS 60 0 31.2000 -84.6000 TS 40 16 73
1868275N27265 1868 13 NA NA NOT_NAMED 1868-10-04 15:00:00 TS 30.3451 -85.0906 main 0 0 P____________P AL021868 29.7747 -85.8195 TS 60 0 31.4858 -83.6328 TS 40 20 73
1868275N27265 1868 13 NA NA NOT_NAMED 1868-10-04 16:00:00 TS 30.4632 -84.6867 60 hurdat_atl main 0 0 O____________P hurdat_atl AL021868 29.9000 -85.4000 L TS 60 0 31.5898 -83.2600 TS 40 22 69
1868275N27265 1868 13 NA NA NOT_NAMED 1868-10-04 18:00:00 TS 30.7333 -83.9000 50 hurdat_atl main 0 0 O____________O hurdat_atl AL021868 30.2000 -84.6000 TS 50 0 31.8000 -82.5000 TS 40 21 69
1868275N27265 1868 13 NA NA NOT_NAMED 1868-10-04 21:00:00 TS 31.0893 -82.7885 main 0 0 P____________P AL021868 30.5842 -83.4618 TS 45 0 32.0993 -81.4419 TS 40 20 69
1868275N27265 1868 13 NA NA NOT_NAMED 1868-10-05 00:00:00 TS 31.4667 -81.6667 40 hurdat_atl main 0 0 O____________O hurdat_atl AL021868 31.0000 -82.3000 TS 40 0 32.4000 -80.4000 TS 40 22 67
1868275N27265 1868 13 NA NA NOT_NAMED 1868-10-05 03:00:00 TS 31.9495 -80.4189 main 43 43 P____________P AL021868 31.5785 -80.9288 TS 40 0 32.6913 -79.3989 TS 40 23 64
1868275N27265 1868 13 NA NA NOT_NAMED 1868-10-05 06:00:00 TS 32.4667 -79.2000 40 hurdat_atl main 58 58 O____________O hurdat_atl AL021868 32.2000 -79.6000 TS 40 0 33.0000 -78.4000 TS 40 21 63
1868275N27265 1868 13 NA NA NOT_NAMED 1868-10-05 09:00:00 TS 32.9171 -78.1918 main 98 81 P____________P AL021868 32.7164 -78.5949 TS 45 0 33.3185 -77.3856 TS 45 20 60
1868275N27265 1868 13 NA NA NOT_NAMED 1868-10-05 12:00:00 TS 33.4333 -77.1667 50 hurdat_atl main 92 81 O____________O hurdat_atl AL021868 33.3000 -77.6000 TS 50 0 33.7000 -76.3000 TS 50 23 58
1868275N27265 1868 13 NA NA NOT_NAMED 1868-10-05 15:00:00 TS 34.1011 -75.8878 main 86 86 P____________P AL021868 34.0629 -76.2954 TS 50 0 34.1774 -75.0725 TS 50 26 57
1868275N27265 1868 13 NA NA NOT_NAMED 1868-10-05 18:00:00 TS 34.8333 -74.5333 50 hurdat_atl main 140 133 O____________O hurdat_atl AL021868 34.9000 -74.9000 TS 50 0 34.7000 -73.8000 TS 50 26 57
1868275N27265 1868 13 NA NA NOT_NAMED 1868-10-05 21:00:00 TS 35.5373 -73.2401 main 210 208 P____________P AL021868 35.7067 -73.5611 TS 55 0 35.1984 -72.5983 TS 55 25 56
1868275N27265 1868 13 NA NA NOT_NAMED 1868-10-06 00:00:00 TS 36.2333 -72.0000 60 hurdat_atl main 317 317 O____________O hurdat_atl AL021868 36.5000 -72.3000 TS 60 0 35.7000 -71.4000 TS 60 24 55
1868275N27265 1868 13 NA NA NOT_NAMED 1868-10-06 03:00:00 TS 36.9033 -70.8322 main 408 408 P____________P AL021868 37.2554 -71.1739 TS 60 0 36.1992 -70.1487 TS 60 23 54
1868275N27265 1868 13 NA NA NOT_NAMED 1868-10-06 06:00:00 TS 37.5667 -69.7000 60 hurdat_atl main 434 404 O____________O hurdat_atl AL021868 38.0000 -70.1000 TS 60 0 36.7000 -68.9000 TS 60 23 54
1868275N27265 1868 13 NA NA NOT_NAMED 1868-10-06 09:00:00 TS 38.2297 -68.5337 main 409 381 P____________P AL021868 38.7636 -68.9706 TS 60 0 37.1619 -67.6598 TS 60 23 54
1868275N27265 1868 13 NA NA NOT_NAMED 1868-10-06 12:00:00 MX 38.9000 -67.3667 60 hurdat_atl main 381 381 O____________O hurdat_atl AL021868 39.5000 -67.8000 EX 60 -4 37.7000 -66.5000 TS 60 22 53
1868275N27265 1868 13 NA NA NOT_NAMED 1868-10-06 15:00:00 MX 39.5715 -66.2166 main 395 367 P____________P AL021868 40.1481 -66.5904 EX 60 -4 38.4184 -65.4691 TS 60 23 53
1868275N27265 1868 13 NA NA NOT_NAMED 1868-10-06 18:00:00 MX 40.2667 -65.0333 60 hurdat_atl main 356 304 O____________O hurdat_atl AL021868 40.8000 -65.3000 EX 60 -4 39.2000 -64.5000 TS 60 24 53
1868275N27265 1868 13 NA NA NOT_NAMED 1868-10-06 21:00:00 MX 41.0148 -63.7386 main 307 294 P____________P AL021868 41.5726 -63.8593 EX 60 -4 39.8991 -63.4973 TS 60 24 53
1868275N27265 1868 13 NA NA NOT_NAMED 1868-10-07 00:00:00 MX 41.7333 -62.4333 60 hurdat_atl main 304 289 O____________O hurdat_atl AL021868 42.3000 -62.4000 EX 60 -4 40.6000 -62.5000 TS 60 23 55
1868275N27265 1868 13 NA NA NOT_NAMED 1868-10-07 03:00:00 MX 42.3553 -61.2007 main 286 267 P____________P AL021868 42.8583 -61.0519 EX 60 -4 41.3491 -61.4984 TS 60 21 57
1868275N27265 1868 13 NA NA NOT_NAMED 1868-10-07 06:00:00 ET 42.9000 -60.0333 60 hurdat_atl main 270 256 O____________O hurdat_atl AL021868 43.3000 -59.8000 EX 60 -4 42.1000 -60.5000 EX 60 20 58
1868275N27265 1868 13 NA NA NOT_NAMED 1868-10-07 09:00:00 ET 43.3905 -58.9011 main 265 265 P____________P AL021868 43.6862 -58.6032 EX 65 -4 42.7991 -59.4970 EX 60 18 60
1868275N27265 1868 13 NA NA NOT_NAMED 1868-10-07 12:00:00 ET 43.8333 -57.8333 70 hurdat_atl main 286 277 O____________O hurdat_atl AL021868 44.0000 -57.5000 EX 70 -4 43.5000 -58.5000 EX 60 17 60
1868275N27265 1868 13 NA NA NOT_NAMED 1868-10-07 15:00:00 ET 44.2558 -56.8213 main 290 244 P____________P AL021868 44.2641 -56.4791 EX 70 -4 44.2392 -57.5057 EX 60 17 60
1868275N27265 1868 13 NA NA NOT_NAMED 1868-10-07 18:00:00 ET 44.6667 -55.8333 70 hurdat_atl main 233 O____________O hurdat_atl AL021868 44.5000 -55.5000 EX 70 -4 45.0000 -56.5000 EX 60 16 60

About IBTrACS Database

This database is a web-friendly format of International Best Track Archive for Climate Stewardship (IBTrACS), a global best track data archive curated by NOAA dating back to 1842.

Updated: 2021-10-19